createdAt,value
2023-04-21T00:00:49.104Z,32.47
2023-04-21T00:03:56.320Z,32.56
2023-04-21T00:07:04.086Z,34.25
2023-04-21T00:10:13.261Z,35.20
2023-04-21T00:13:21.340Z,36.85
2023-04-21T00:16:31.000Z,36.79
2023-04-21T00:19:36.950Z,35.80
2023-04-21T00:22:44.028Z,48.98
2023-04-21T00:25:49.906Z,50.05
2023-04-21T00:28:56.757Z,43.30
2023-04-21T00:32:08.760Z,39.22
2023-04-21T00:35:16.421Z,42.48
2023-04-21T00:38:22.323Z,41.37
2023-04-21T00:41:32.073Z,36.90
2023-04-21T00:44:44.616Z,36.05
2023-04-21T00:47:54.128Z,37.03
2023-04-21T00:51:00.295Z,37.49
2023-04-21T00:54:10.435Z,36.95
2023-04-21T00:57:17.004Z,38.17
2023-04-21T01:00:24.028Z,38.54
2023-04-21T01:03:34.758Z,39.05
2023-04-21T01:06:45.817Z,40.24
2023-04-21T01:09:55.324Z,42.25
2023-04-21T01:13:03.630Z,42.69
2023-04-21T01:16:11.357Z,42.44
2023-04-21T01:19:20.966Z,42.57
2023-04-21T01:22:36.003Z,37.86
2023-04-21T01:25:42.784Z,36.28
2023-04-21T01:28:49.496Z,35.98
2023-04-21T01:31:56.316Z,36.87
2023-04-21T01:35:04.584Z,37.55
2023-04-21T01:38:14.531Z,33.50
2023-04-21T01:41:22.143Z,31.57
2023-04-21T01:44:35.460Z,32.95
2023-04-21T01:47:41.575Z,32.30
2023-04-21T01:50:56.330Z,34.76
2023-04-21T01:54:09.155Z,36.44
2023-04-21T01:57:16.071Z,38.49
2023-04-21T02:00:22.601Z,38.03
2023-04-21T02:03:29.700Z,38.68
2023-04-21T02:06:36.511Z,39.38
2023-04-21T02:09:46.406Z,39.72
2023-04-21T02:12:53.990Z,38.83
2023-04-21T02:16:12.881Z,39.08
2023-04-21T02:19:27.325Z,38.34
2023-04-21T02:22:34.847Z,38.59
2023-04-21T02:25:45.069Z,39.93
2023-04-21T02:28:52.743Z,41.56
2023-04-21T02:32:05.146Z,44.50
2023-04-21T02:35:17.920Z,41.14
2023-04-21T02:38:23.732Z,36.32
2023-04-21T02:41:33.164Z,36.24
2023-04-21T02:44:41.217Z,39.30
2023-04-21T02:47:48.010Z,40.42
2023-04-21T02:50:56.756Z,41.11
2023-04-21T02:54:05.192Z,42.87
2023-04-21T02:57:13.709Z,44.43
2023-04-21T03:00:21.333Z,44.84
2023-04-21T03:03:27.364Z,45.83
2023-04-21T03:06:37.241Z,47.70
2023-04-21T03:09:45.224Z,44.90
2023-04-21T03:12:54.705Z,48.18
2023-04-21T03:16:00.813Z,50.66
2023-04-21T03:19:07.676Z,50.05
2023-04-21T03:22:16.050Z,51.02
2023-04-21T03:25:30.438Z,47.16
2023-04-21T03:28:49.830Z,45.48
2023-04-21T03:32:06.182Z,45.70
2023-04-21T03:35:12.312Z,40.83
2023-04-21T03:38:19.077Z,37.07
2023-04-21T03:41:25.349Z,36.63
2023-04-21T03:44:34.967Z,38.33
2023-04-21T03:47:41.319Z,41.74
2023-04-21T03:50:48.119Z,41.42
2023-04-21T03:53:54.168Z,40.42
2023-04-21T03:57:00.812Z,38.73
2023-04-21T04:00:13.078Z,39.57
2023-04-21T04:03:21.900Z,39.33
2023-04-21T04:06:29.842Z,39.66
2023-04-21T04:09:36.551Z,41.68
2023-04-21T04:12:42.574Z,45.82
2023-04-21T04:15:51.973Z,44.88
2023-04-21T04:18:58.155Z,46.04
2023-04-21T04:22:07.962Z,45.89
2023-04-21T04:25:21.436Z,43.52
2023-04-21T04:28:29.203Z,44.02
2023-04-21T04:31:38.132Z,47.72
2023-04-21T04:34:44.920Z,44.24
2023-04-21T04:37:51.084Z,42.81
2023-04-21T04:40:59.271Z,42.01
2023-04-21T04:44:05.336Z,41.12
2023-04-21T04:47:15.400Z,43.43
2023-04-21T04:50:21.661Z,44.90
2023-04-21T04:53:28.616Z,46.27
2023-04-21T04:56:41.448Z,54.71
2023-04-21T04:59:57.351Z,52.46
2023-04-21T05:03:06.489Z,56.70
2023-04-21T05:06:14.393Z,58.48
2023-04-21T05:09:26.500Z,50.66
2023-04-21T05:12:38.157Z,51.33
2023-04-21T05:15:47.485Z,47.76
2023-04-21T05:18:56.968Z,50.24
2023-04-21T05:22:06.733Z,56.52
2023-04-21T05:25:16.206Z,57.49
2023-04-21T05:28:23.483Z,60.16
2023-04-21T05:31:30.639Z,59.32
2023-04-21T05:34:39.400Z,52.00
2023-04-21T05:37:46.184Z,40.62
2023-04-21T05:40:58.096Z,28.04
2023-04-21T05:44:04.953Z,25.93
2023-04-21T05:47:11.194Z,24.30
2023-04-21T05:50:20.693Z,23.31
2023-04-21T05:53:27.854Z,23.28
2023-04-21T05:56:34.659Z,23.99
2023-04-21T05:59:40.721Z,26.08
2023-04-21T06:02:47.580Z,27.62
2023-04-21T06:06:00.643Z,24.98
2023-04-21T06:09:10.249Z,21.54
2023-04-21T06:12:16.208Z,20.08
2023-04-21T06:15:22.942Z,19.37
2023-04-21T06:18:30.685Z,19.16
2023-04-21T06:21:40.038Z,17.59
2023-04-21T06:24:46.113Z,20.98
2023-04-21T06:27:52.850Z,20.09
2023-04-21T06:30:58.771Z,19.99
2023-04-21T06:34:05.849Z,19.93
2023-04-21T06:37:14.412Z,18.12
2023-04-21T06:40:21.474Z,17.26
2023-04-21T06:43:27.414Z,16.54
2023-04-21T06:46:34.214Z,17.14
2023-04-21T06:49:40.493Z,16.77
2023-04-21T06:52:50.019Z,16.73
2023-04-21T06:55:56.615Z,16.17
2023-04-21T06:59:03.557Z,15.77
2023-04-21T07:02:09.780Z,15.50
2023-04-21T07:05:16.582Z,15.56
2023-04-21T07:08:25.224Z,15.90
2023-04-21T07:11:32.094Z,16.31
2023-04-21T07:14:37.916Z,16.54
2023-04-21T07:17:44.786Z,16.34
2023-04-21T07:20:51.789Z,16.81
2023-04-21T07:24:01.709Z,16.00
2023-04-21T07:27:07.882Z,16.34
2023-04-21T07:30:16.088Z,16.25
2023-04-21T07:33:21.989Z,15.85
2023-04-21T07:36:31.107Z,16.44
2023-04-21T07:39:39.740Z,16.28
2023-04-21T07:42:46.691Z,15.74
2023-04-21T07:45:52.865Z,15.83
2023-04-21T07:49:13.532Z,15.36
2023-04-21T07:52:34.765Z,15.48
2023-04-21T07:55:44.219Z,15.42
2023-04-21T07:58:50.154Z,14.21
2023-04-21T08:01:57.273Z,14.61
2023-04-21T08:05:03.598Z,14.68
2023-04-21T08:08:10.817Z,13.89
2023-04-21T08:11:32.443Z,13.29
2023-04-21T08:14:39.252Z,12.46
2023-04-21T08:17:45.255Z,12.23
2023-04-21T08:20:52.762Z,11.92
2023-04-21T08:23:58.750Z,11.52
2023-04-21T08:27:08.233Z,11.17
2023-04-21T08:30:16.622Z,11.30
2023-04-21T08:33:23.595Z,11.57
2023-04-21T08:36:30.354Z,11.71
2023-04-21T08:39:37.549Z,11.60
2023-04-21T08:42:46.327Z,11.61
2023-04-21T08:45:55.656Z,11.58
2023-04-21T08:49:03.078Z,10.83
2023-04-21T08:52:16.965Z,10.67
2023-04-21T08:55:29.272Z,10.37
2023-04-21T08:58:39.006Z,10.88
2023-04-21T09:02:16.516Z,10.68
2023-04-21T09:05:27.486Z,10.98
2023-04-21T09:08:40.247Z,11.00
2023-04-21T09:11:53.211Z,10.96
2023-04-21T09:15:02.564Z,10.69
2023-04-21T09:18:16.053Z,11.16
2023-04-21T09:21:23.638Z,11.34
2023-04-21T09:24:34.126Z,11.82
2023-04-21T09:27:40.269Z,11.44
2023-04-21T09:30:49.645Z,11.30
2023-04-21T09:34:00.704Z,11.83
2023-04-21T09:37:18.207Z,14.17
2023-04-21T09:40:31.598Z,14.89
2023-04-21T09:43:52.317Z,13.89
2023-04-21T09:47:06.317Z,13.23
2023-04-21T09:50:17.199Z,12.62
2023-04-21T09:53:31.608Z,12.19
2023-04-21T09:56:45.726Z,11.40
2023-04-21T09:59:59.786Z,11.55
2023-04-21T10:03:11.772Z,11.15
2023-04-21T10:06:19.775Z,11.73
2023-04-21T10:09:34.680Z,11.67
2023-04-21T10:12:41.451Z,10.63
2023-04-21T10:15:48.331Z,10.53
2023-04-21T10:18:57.113Z,10.37
2023-04-21T10:22:04.071Z,10.29
2023-04-21T10:25:15.101Z,9.77
2023-04-21T10:28:25.241Z,9.56
2023-04-21T10:31:37.026Z,9.68
2023-04-21T10:34:47.066Z,9.35
2023-04-21T10:37:55.521Z,9.65
2023-04-21T10:41:34.129Z,9.91
2023-04-21T10:44:45.327Z,10.08
2023-04-21T10:47:53.067Z,9.45
2023-04-21T10:51:08.631Z,10.24
2023-04-21T10:54:21.303Z,9.78
2023-04-21T10:57:27.399Z,9.90
2023-04-21T11:00:34.806Z,10.19
2023-04-21T11:03:51.761Z,10.29
2023-04-21T11:07:15.361Z,10.13
2023-04-21T11:10:21.258Z,9.79
2023-04-21T11:13:34.008Z,9.86
2023-04-21T11:16:42.459Z,9.81
2023-04-21T11:19:52.562Z,10.08
2023-04-21T11:23:02.780Z,9.81
2023-04-21T11:26:09.552Z,9.80
2023-04-21T11:29:15.918Z,9.98
2023-04-21T11:32:22.701Z,11.02
2023-04-21T11:35:28.786Z,10.72
2023-04-21T11:38:44.898Z,10.89
2023-04-21T11:41:53.885Z,11.83
2023-04-21T11:45:01.306Z,11.67
2023-04-21T11:48:22.879Z,11.13
2023-04-21T11:51:31.791Z,11.80
2023-04-21T11:54:42.037Z,11.58
2023-04-21T11:57:49.086Z,12.22
2023-04-21T12:00:55.153Z,11.62
2023-04-21T12:04:02.069Z,11.05
2023-04-21T12:07:08.189Z,11.05
2023-04-21T12:10:21.687Z,10.47
2023-04-21T12:13:28.628Z,10.37
2023-04-21T12:16:35.560Z,10.46
2023-04-21T12:19:44.733Z,10.96
2023-04-21T12:22:52.700Z,10.91
2023-04-21T12:26:01.732Z,10.83
2023-04-21T12:29:08.524Z,10.28
2023-04-21T12:32:14.376Z,10.86
2023-04-21T12:35:35.980Z,9.93
2023-04-21T12:38:43.618Z,9.23
2023-04-21T12:41:52.991Z,9.75
2023-04-21T12:44:58.817Z,9.39
2023-04-21T12:48:07.073Z,9.39
2023-04-21T12:51:13.139Z,9.52
2023-04-21T12:54:20.665Z,9.67
2023-04-21T12:57:29.902Z,9.97
2023-04-21T13:00:36.840Z,9.68
2023-04-21T13:03:44.571Z,9.77
2023-04-21T13:06:51.782Z,9.50
2023-04-21T13:09:57.919Z,9.57
2023-04-21T13:13:07.607Z,9.83
2023-04-21T13:16:13.809Z,9.51
2023-04-21T13:19:20.844Z,9.54
2023-04-21T13:22:27.116Z,9.36
2023-04-21T13:25:34.055Z,9.35
2023-04-21T13:28:42.931Z,9.61
2023-04-21T13:31:49.904Z,9.35
2023-04-21T13:34:56.167Z,9.23
2023-04-21T13:38:02.913Z,9.22
2023-04-21T13:41:09.549Z,9.03
2023-04-21T13:44:19.090Z,9.04
2023-04-21T13:47:25.136Z,9.51
2023-04-21T13:50:32.038Z,9.21
2023-04-21T13:53:37.936Z,9.02
2023-04-21T13:56:44.845Z,9.31
2023-04-21T13:59:54.492Z,9.22
2023-04-21T14:03:01.910Z,9.63
2023-04-21T14:06:11.441Z,9.30
2023-04-21T14:09:18.682Z,9.91
2023-04-21T14:12:26.398Z,9.66
2023-04-21T14:15:36.200Z,9.61
2023-04-21T14:18:45.395Z,9.62
2023-04-21T14:21:52.177Z,9.10
2023-04-21T14:24:58.108Z,8.91
2023-04-21T14:28:07.583Z,9.15
2023-04-21T14:31:16.545Z,9.28
2023-04-21T14:34:23.426Z,8.76
2023-04-21T14:37:30.471Z,8.43
2023-04-21T14:40:37.293Z,8.73
2023-04-21T14:43:43.258Z,8.46
2023-04-21T14:47:05.602Z,8.38
2023-04-21T14:50:15.225Z,8.58
2023-04-21T14:53:22.177Z,8.05
2023-04-21T14:56:28.141Z,8.57
2023-04-21T14:59:35.289Z,8.67
2023-04-21T15:02:44.637Z,8.16
2023-04-21T15:05:51.490Z,8.46
2023-04-21T15:08:57.466Z,8.12
2023-04-21T15:12:04.321Z,7.99
2023-04-21T15:15:12.060Z,8.06
2023-04-21T15:18:21.663Z,8.10
2023-04-21T15:21:27.991Z,7.46
2023-04-21T15:24:34.896Z,7.90
2023-04-21T15:27:41.474Z,8.06
2023-04-21T15:30:48.356Z,8.21
2023-04-21T15:33:59.234Z,7.75
2023-04-21T15:37:05.981Z,7.35
2023-04-21T15:40:14.194Z,7.23
2023-04-21T15:43:22.040Z,7.22
2023-04-21T15:46:29.659Z,7.67
2023-04-21T15:49:39.296Z,7.92
2023-04-21T15:52:45.577Z,7.78
2023-04-21T15:55:52.756Z,7.81
2023-04-21T15:58:58.657Z,7.79
2023-04-21T16:02:06.372Z,8.11
2023-04-21T16:05:15.575Z,8.05
2023-04-21T16:08:22.468Z,7.74
2023-04-21T16:11:29.654Z,8.42
2023-04-21T16:14:51.255Z,9.47
2023-04-21T16:18:04.291Z,8.55
2023-04-21T16:21:13.871Z,8.66
2023-04-21T16:24:20.228Z,8.16
2023-04-21T16:27:27.133Z,7.96
2023-04-21T16:30:33.329Z,8.41
2023-04-21T16:33:40.088Z,8.05
2023-04-21T16:36:48.961Z,7.76
2023-04-21T16:40:02.863Z,8.01
2023-04-21T16:43:09.363Z,7.67
2023-04-21T16:46:22.873Z,8.05
2023-04-21T16:49:30.571Z,8.33
2023-04-21T16:52:40.149Z,7.94
2023-04-21T16:55:46.253Z,7.77
2023-04-21T16:58:58.567Z,7.82
2023-04-21T17:02:04.713Z,8.21
2023-04-21T17:05:13.062Z,8.14
2023-04-21T17:08:28.828Z,7.90
2023-04-21T17:11:37.502Z,7.55
2023-04-21T17:14:44.775Z,7.24
2023-04-21T17:17:51.656Z,7.39
2023-04-21T17:20:57.714Z,8.16
2023-04-21T17:24:07.650Z,8.26
2023-04-21T17:27:23.689Z,8.41
2023-04-21T17:30:30.440Z,8.55
2023-04-21T17:33:46.908Z,8.97
2023-04-21T17:36:53.937Z,8.96
2023-04-21T17:40:09.852Z,9.25
2023-04-21T17:43:16.829Z,10.11
2023-04-21T17:46:25.109Z,10.05
2023-04-21T17:49:32.516Z,10.32
2023-04-21T17:52:38.571Z,10.37
2023-04-21T17:55:48.109Z,9.75
2023-04-21T17:58:56.390Z,9.64
2023-04-21T18:02:16.201Z,9.69
2023-04-21T18:05:23.449Z,10.34
2023-04-21T18:08:30.388Z,9.52
2023-04-21T18:11:39.430Z,8.77
2023-04-21T18:14:46.329Z,8.90
2023-04-21T18:17:53.484Z,9.23
2023-04-21T18:21:00.571Z,10.22
2023-04-21T18:24:06.654Z,11.63
2023-04-21T18:27:17.810Z,12.49
2023-04-21T18:30:24.396Z,13.61
2023-04-21T18:33:32.066Z,13.23
2023-04-21T18:36:45.956Z,12.65
2023-04-21T18:39:52.688Z,12.80
2023-04-21T18:43:02.850Z,15.40
2023-04-21T18:46:21.831Z,17.24
2023-04-21T18:49:32.080Z,19.11
2023-04-21T18:52:38.961Z,17.93
2023-04-21T18:55:45.747Z,17.75
2023-04-21T18:58:57.008Z,17.51
2023-04-21T19:02:04.286Z,16.22
2023-04-21T19:05:12.665Z,15.39
2023-04-21T19:08:30.064Z,14.35
2023-04-21T19:11:45.279Z,17.65
2023-04-21T19:14:55.543Z,19.55
2023-04-21T19:18:02.562Z,20.16
2023-04-21T19:21:13.008Z,35.67
2023-04-21T19:24:21.606Z,29.49
2023-04-21T19:27:27.732Z,19.90
2023-04-21T19:30:37.615Z,17.55
2023-04-21T19:33:44.746Z,16.10
2023-04-21T19:36:53.225Z,17.18
2023-04-21T19:39:59.429Z,16.07
2023-04-21T19:43:09.103Z,16.56
2023-04-21T19:46:17.816Z,17.00
2023-04-21T19:49:25.205Z,15.26
2023-04-21T19:52:31.294Z,18.11
2023-04-21T19:55:38.065Z,21.45
2023-04-21T19:58:44.625Z,20.78
2023-04-21T20:02:05.246Z,21.95
2023-04-21T20:05:12.710Z,29.51
2023-04-21T20:08:24.540Z,35.20
2023-04-21T20:11:31.660Z,21.42
2023-04-21T20:14:41.955Z,22.35
2023-04-21T20:17:50.609Z,20.34
2023-04-21T20:20:57.558Z,28.81
2023-04-21T20:24:03.963Z,40.52
2023-04-21T20:27:10.758Z,43.65
2023-04-21T20:30:17.138Z,33.29
2023-04-21T20:33:28.386Z,29.88
2023-04-21T20:36:37.236Z,23.01
2023-04-21T20:39:47.189Z,20.24
2023-04-21T20:42:53.185Z,18.87
2023-04-21T20:46:00.112Z,18.82
2023-04-21T20:49:09.357Z,19.90
2023-04-21T20:52:16.328Z,19.83
2023-04-21T20:55:22.290Z,19.39
2023-04-21T20:58:28.960Z,18.96
2023-04-21T21:01:39.276Z,20.93
2023-04-21T21:04:49.530Z,21.27
2023-04-21T21:08:02.905Z,20.40
2023-04-21T21:11:15.900Z,20.94
2023-04-21T21:14:23.553Z,20.03
2023-04-21T21:17:30.412Z,19.35
2023-04-21T21:20:39.043Z,19.76
2023-04-21T21:23:45.800Z,19.55
2023-04-21T21:26:51.806Z,19.66
2023-04-21T21:29:58.571Z,18.33
2023-04-21T21:33:10.856Z,20.36
2023-04-21T21:36:20.294Z,20.08
2023-04-21T21:39:26.958Z,18.07
2023-04-21T21:42:33.672Z,17.27
2023-04-21T21:45:39.937Z,17.20
2023-04-21T21:48:46.730Z,17.40
2023-04-21T21:51:55.349Z,17.85
2023-04-21T21:55:05.288Z,19.94
2023-04-21T21:58:13.642Z,24.57
2023-04-21T22:01:23.737Z,21.63
2023-04-21T22:04:29.789Z,21.77
2023-04-21T22:07:41.122Z,21.91
2023-04-21T22:10:49.125Z,23.48
2023-04-21T22:13:56.711Z,24.23
2023-04-21T22:17:03.770Z,24.40
2023-04-21T22:20:12.455Z,24.57
2023-04-21T22:23:22.900Z,25.19
2023-04-21T22:26:29.646Z,25.09
2023-04-21T22:29:35.723Z,28.54
2023-04-21T22:32:42.709Z,28.52
2023-04-21T22:35:48.724Z,27.69
2023-04-21T22:38:58.161Z,29.91
2023-04-21T22:42:04.120Z,27.79
2023-04-21T22:45:18.676Z,27.08
2023-04-21T22:48:26.461Z,25.74
2023-04-21T22:51:33.327Z,25.39
2023-04-21T22:54:42.823Z,26.59
2023-04-21T22:57:50.062Z,26.85
2023-04-21T23:00:56.472Z,27.45
2023-04-21T23:04:05.055Z,26.33
2023-04-21T23:07:10.994Z,24.46
2023-04-21T23:10:20.755Z,23.25
2023-04-21T23:13:26.650Z,23.56
2023-04-21T23:16:33.468Z,23.60
2023-04-21T23:19:39.688Z,23.16
2023-04-21T23:22:47.679Z,22.26
2023-04-21T23:25:56.269Z,23.31
2023-04-21T23:29:05.421Z,23.85
2023-04-21T23:32:11.461Z,24.19
2023-04-21T23:35:18.113Z,29.60
2023-04-21T23:38:24.081Z,28.03
2023-04-21T23:41:33.776Z,30.81
2023-04-21T23:44:40.632Z,28.69
2023-04-21T23:47:48.217Z,28.93
2023-04-21T23:50:54.169Z,30.28
2023-04-21T23:54:01.954Z,30.77
2023-04-21T23:57:10.623Z,30.93
